• Join FlightAware (Why Join?)
  • Login
  • US Flag 
12:33AM EDT


 

Airport Tracker/Info


-or-


 

Live Flight TrackerFlight Track Log ✈ ASQ5874 ✈ 22-Nov-2013 ✈ KICT - KORD

Flight Track Log - Related Links

Times and Time Zones

All times are in EST time to prevent confusion due to time zone crossing. See the ASQ5874 flight status page for this flight to view local times or setup timezone preferences in your user account.

Time Position Orientation Groundspeed Altitude Reporting Facility
EST Latitude Longitude Course Direction KTS MPH feet Rate Location/Type
07:14AM 37.6686 -97.4156 53° Northeast 146 168 2,100  Level Kansas City Center
07:14AM 37.6786 -97.4086 29° Northeast 147 169 2,900 2,040 Climbing Kansas City Center
07:15AM 37.7150 -97.3739 37° Northeast 173 199 4,800 1,800 Climbing Kansas City Center
07:15AM 37.7194 -97.3675 49° Northeast 184 212 5,000 1,260 Climbing Kansas City Center
07:16AM 37.7567 -97.3078 52° Northeast 207 238 6,300 1,560 Climbing Kansas City Center
07:17AM 37.8863 -96.9807 52° Northeast  Level Estimated
07:17AM 37.8025 -97.2333 52° Northeast 262 302 8,200  Level Kansas City Center
07:18AM 37.9452 -96.8671 50° Northeast  Level Estimated
07:18AM 37.8517 -97.1533 52° Northeast 281 323 9,800  Level Kansas City Center
07:19AM 38.0039 -96.7534 53° Northeast  Level Estimated
07:19AM 37.9033 -97.0692 52° Northeast 307 353 11,000  Level Kansas City Center
07:20AM 37.9617 -96.9725 53° Northeast 339 390 12,100 1,020 Climbing Kansas City Center
07:21AM 38.0253 -96.8697 52° Northeast 367 422 13,100 960 Climbing Kansas City Center
07:22AM 38.0911 -96.7631 52° Northeast 381 438 14,100 1,020 Climbing Kansas City Center
07:23AM 38.1583 -96.6517 52° Northeast 393 452 15,200 1,080 Climbing Kansas City Center
07:24AM 38.2278 -96.5378 52° Northeast 406 467 16,300 1,320 Climbing Kansas City Center
07:25AM 38.3036 -96.4119 52° Northeast 402 463 17,900 1,140 Climbing Kansas City Center
07:26AM 38.3692 -96.3028 53° Northeast 407 468 18,600 1,020 Climbing Kansas City Center
07:27AM 38.4347 -96.1922 53° Northeast 407 468 20,000 1,380 Climbing Kansas City Center
07:28AM 38.5136 -96.0631 52° Northeast 412 474 21,500 1,260 Climbing Kansas City Center
07:29AM 38.5819 -95.9456 53° Northeast 424 488 22,600 1,080 Climbing Kansas City Center
07:30AM 38.6528 -95.8272 53° Northeast 435 501 23,700 1,080 Climbing Kansas City Center
07:31AM 38.7228 -95.7064 53° Northeast 440 506 24,800 1,080 Climbing Kansas City Center
07:32AM 38.8069 -95.5650 53° Northeast 447 514 26,000 1,080 Climbing Kansas City Center
07:33AM 38.8772 -95.4433 53° Northeast 445 512 27,100 1,140 Climbing Kansas City Center
07:34AM 38.9597 -95.3033 53° Northeast 443 510 28,300 1,140 Climbing Kansas City Center
07:35AM 39.0325 -95.1769 53° Northeast 443 510 29,400 1,020 Climbing Kansas City Center
07:36AM 39.0961 -95.0644 54° Northeast 435 501 30,400 780 Climbing Kansas City Center
07:37AM 39.1781 -94.9236 53° Northeast 444 511 31,000 240 Climbing Kansas City Center
07:38AM 39.2519 -94.7933 54° Northeast 466 536 31,000  Level Kansas City Center
07:39AM 39.3219 -94.6450 59° Northeast 494 568 31,000  Level Kansas City Center
07:40AM 39.3994 -94.4597 62° Northeast 524 603 31,000  Level Kansas City Center
07:41AM 39.4656 -94.2964 62° Northeast 533 613 31,000  Level Kansas City Center
07:42AM 39.5414 -94.1067 63° Northeast 532 612 31,000  Level Kansas City Center
07:43AM 39.6064 -93.9439 63° Northeast 532 612 31,000  Level Kansas City Center
07:44AM 39.6722 -93.7808 62° Northeast 533 613 31,000  Level Kansas City Center
07:45AM 39.7400 -93.6097 63° Northeast 539 620 31,000  Level Kansas City Center
07:46AM 39.8078 -93.4358 63° Northeast 541 623 31,000  Level Kansas City Center
07:47AM 39.8775 -93.2628 62° Northeast 545 627 31,000  Level Kansas City Center
07:48AM 39.9453 -93.0844 64° Northeast 552 635 31,000  Level Kansas City Center
07:49AM 40.0131 -92.9083 63° Northeast 550 633 31,000  Level Kansas City Center
07:51AM 40.0875 -92.7144 63° Northeast 544 626 31,000  Level Kansas City Center
07:52AM 40.1608 -92.5153 64° Northeast 543 625 31,000  Level Kansas City Center
07:53AM 40.2211 -92.3547 64° Northeast 542 624 31,000  Level Kansas City Center
07:54AM 40.2839 -92.1797 65° Northeast 543 625 31,000  Level Kansas City Center
07:55AM 40.3458 -92.0033 65° Northeast 540 621 31,000  Level Kansas City Center
07:56AM 40.4089 -91.8261 65° Northeast 541 623 31,000  Level Kansas City Center
07:57AM 40.4831 -91.6117 65° Northeast 542 624 31,000  Level Kansas City Center
07:58AM 40.5425 -91.4314 66° East 541 623 31,000  Level Kansas City Center
07:59AM 40.5958 -91.2753 66° East 544 626 31,000  Level Kansas City Center
08:00AM 40.6719 -91.0589 65° Northeast 544 626 31,000  Level Chicago Center
08:01AM 40.7342 -90.8753 66° East 546 628 31,000  Level Chicago Center
08:02AM 40.7947 -90.6917 66° East 545 627 31,000  Level Chicago Center
08:03AM 40.8558 -90.5078 66° East 545 627 31,000 -60 Level Chicago Center
08:04AM 40.9189 -90.3214 66° East 551 634 30,900 -540 Descending Chicago Center
08:05AM 40.9808 -90.1336 66° East 550 633 29,900 -1,020 Descending Chicago Center
08:06AM 41.0447 -89.9414 66° East 559 643 28,900 -1,680 Descending Chicago Center
08:07AM 41.1183 -89.7175 66° East 546 628 26,500 -2,400 Descending Chicago Center
08:08AM 41.1833 -89.5314 65° Northeast 551 634 24,000 -2,400 Descending Chicago Center
08:09AM 41.2556 -89.3561 61° Northeast 540 621 21,700 -2,280 Descending Chicago Center
08:10AM 41.3206 -89.1944 62° Northeast 497 572 19,400 -2,460 Descending Chicago Center
08:11AM 41.3761 -89.0525 62° Northeast 467 537 16,700 -3,240 Descending Chicago Center
08:12AM 41.4428 -88.8856 62° Northeast 427 491 12,800 -2,340 Descending Chicago Center
08:13AM 41.4925 -88.7564 63° Northeast 396 456 12,000 -420 Descending Chicago Center
08:14AM 41.5433 -88.6306 62° Northeast 387 445 12,000  Level Chicago Center
08:15AM 41.6039 -88.5147 55° Northeast 381 438 12,100 -120 Climbing Chicago Center
08:16AM 41.6756 -88.4094 48° Northeast 381 438 11,800 -900 Descending Chicago Center
08:17AM 41.7444 -88.3181 45° Northeast 350 403 10,300 -1,260 Descending Chicago Center
08:18AM 41.8083 -88.2422 41° Northeast 310 357 9,200 -840 Descending Chicago Center
08:20AM 41.8833 -88.0667 60° Northeast 279 321 8,000 -420 Descending Chicago TRACON
08:21AM 41.8833 -87.9667 90° East 266 306 8,100  Climbing Chicago TRACON
08:22AM 41.8833 -87.8833 90° East 237 273 8,000 -300 Descending Chicago TRACON
08:23AM 41.8833 -87.7833 90° East 227 261 7,500 -480 Descending Chicago TRACON
08:24AM 41.8833 -87.7000 90° East 224 258 7,100 -480 Descending Chicago TRACON
08:25AM 41.8833 -87.6008 90° East 236 272 6,400 -480 Descending Chicago Center
08:26AM 41.8839 -87.5083 90° East 244 281 6,000 -120 Descending Chicago Center
08:28AM 41.8833 -87.3333 90° East 250 288 6,100 -300 Climbing Chicago TRACON
08:29AM 41.9500 -87.3167 11° North 217 250 5,300 -600 Descending Chicago TRACON
08:30AM 41.9667 -87.3667 294° West 171 197 5,000 -180 Descending Chicago TRACON
08:31AM 41.9667 -87.4333 270° West 166 191 5,000  Level Chicago TRACON
08:32AM 41.9661 -87.4564 268° West 175 201 5,000  Level Chicago Center
08:33AM 41.9661 -87.5189 270° West 170 196 5,000  Level Chicago Center
08:34AM 41.9656 -87.5803 269° West 168 193 5,000 -300 Level Chicago Center
08:35AM 41.9656 -87.6539 270° West 166 191 4,400 -840 Descending Chicago Center
08:36AM 41.9656 -87.7197 270° West 170 196 3,300 -1,080 Descending Chicago Center
08:37AM 41.9656 -87.7878 270° West 176 203 2,300 -960 Descending Chicago Center
08:38AM 41.9658 -87.8447 270° West 169 194 1,400 -480 Descending Chicago Center
08:39AM 41.9672 -87.9000 272° West 166 191 1,400  Level Chicago Center